Time;durP1;ratioP1;P1;durP2;ratioP2;P2;SDS_P1;SDS_P2;PMS_P1;PMS_P2;Temp;Humidity;BMP_temperature;BMP_pressure;BME280_temperature;BME280_humidity;BME280_pressure;Samples;Min_cycle;Max_cycle;Signal;HPM_P1;HPM_P2
2022/02/13 00:00:17;;;;;;;;;;;;;;;14.03;64.72;101474.56;1022045;29;752;-62
2022/02/13 00:01:10;;;;;;;;;;;;;;;14.03;64.21;101474.56;1021486;29;813;-63
2022/02/13 00:02:00;;;;;;;;;;;;;;;14.04;64.32;101473.59;1021432;29;703;-63
2022/02/13 00:02:51;;;;;;;;;;;;;;;14.04;64.43;101470.06;1021972;29;694;-63
2022/02/13 00:03:41;;;;;;;;;;;;;;;14.04;63.25;101470.91;1021875;29;835;-63
2022/02/13 00:04:32;;;;;;;;;;;;;;;14.03;63.64;101471.88;1021456;29;733;-63
2022/02/13 00:05:22;;;;;;;;;;;;;;;14.04;64.72;101472.72;1021934;29;856;-63
2022/02/13 00:06:12;;;;;;;;;;;;;;;14.04;63.29;101468.22;1017123;29;1919;-63
2022/02/13 00:07:03;;;;;;;;;;;;;;;14.02;64.16;101459.44;1017623;29;711;-63
2022/02/13 00:07:54;;;;;;;;;;;;;;;14.02;64.47;101469.28;1021341;29;681;-63
2022/02/13 00:08:44;;;;;;;;;;;;;;;14.00;64.40;101466.72;1021210;29;1875;-63
2022/02/13 00:09:37;;;;;;;;;;;;;;;14.00;63.73;101461.34;1021240;29;759;-63
2022/02/13 00:10:27;;;;;;;;;;;;;;;13.99;65.68;101465.00;1021348;29;793;-63
2022/02/13 00:11:17;;;;;;;;;;;;;;;13.99;65.24;101464.16;1021935;29;692;-63
2022/02/13 00:12:08;;;;;;;;;;;;;;;13.99;64.15;101465.00;1021826;29;981;-64
2022/02/13 00:12:58;;;;;;;;;;;;;;;14.00;63.38;101457.81;1021933;29;769;-63
2022/02/13 00:13:49;;;;;;;;;;;;;;;13.98;66.55;101459.75;1021903;29;899;-63
2022/02/13 00:14:39;;;;;;;;;;;;;;;13.96;67.05;101456.34;1022058;29;780;-63
2022/02/13 00:15:29;;;;;;;;;;;;;;;13.95;64.97;101460.84;1021949;29;698;-63
2022/02/13 00:16:20;;;;;;;;;;;;;;;13.96;63.99;101454.53;1021865;29;708;-62
2022/02/13 00:17:10;;;;;;;;;;;;;;;13.97;64.44;101458.06;1021385;29;821;-62
2022/02/13 00:18:01;;;;;;;;;;;;;;;13.98;65.53;101455.25;1021867;29;786;-63
2022/02/13 00:18:51;;;;;;;;;;;;;;;13.96;63.37;101453.66;1021083;29;1953;-62
2022/02/13 00:19:43;;;;;;;;;;;;;;;13.95;64.75;101452.81;1020916;29;785;-63
2022/02/13 00:20:34;;;;;;;;;;;;;;;13.96;65.33;101448.31;1021912;29;770;-63
2022/02/13 00:21:24;;;;;;;;;;;;;;;13.95;64.29;101446.59;1020802;29;734;-62
2022/02/13 00:22:15;;;;;;;;;;;;;;;13.93;64.45;101446.69;1020824;29;839;-63
2022/02/13 00:23:08;;;;;;;;;;;;;;;13.94;64.63;101448.41;1021946;29;662;-63
2022/02/13 00:23:58;;;;;;;;;;;;;;;13.94;64.72;101450.22;1021721;29;1064;-63
2022/02/13 00:24:50;;;;;;;;;;;;;;;13.94;66.29;101444.88;1020922;29;712;-64
2022/02/13 00:25:42;;;;;;;;;;;;;;;13.94;64.39;101445.72;1021975;29;687;-63
2022/02/13 00:26:33;;;;;;;;;;;;;;;13.93;63.95;101440.47;1021727;29;1942;-63
2022/02/13 00:27:24;;;;;;;;;;;;;;;13.92;66.06;101436.94;1021852;29;827;-63
2022/02/13 00:28:15;;;;;;;;;;;;;;;13.91;65.16;101440.56;1021909;29;801;-63
2022/02/13 00:29:07;;;;;;;;;;;;;;;13.92;65.51;101431.56;1017986;29;825;-64
2022/02/13 00:29:57;;;;;;;;;;;;;;;13.88;67.09;101430.94;1017337;29;678;-64
2022/02/13 00:30:48;;;;;;;;;;;;;;;13.92;64.79;101431.56;1017343;29;776;-65
2022/02/13 00:31:38;;;;;;;;;;;;;;;13.89;67.09;101427.28;1017274;29;666;-64
2022/02/13 00:32:29;;;;;;;;;;;;;;;13.87;66.11;101425.66;1017404;29;853;-64
2022/02/13 00:33:19;;;;;;;;;;;;;;;13.87;65.07;101423.84;1016743;29;759;-63
2022/02/13 00:34:10;;;;;;;;;;;;;;;13.86;66.52;101406.06;1017473;29;774;-64
2022/02/13 00:35:00;;;;;;;;;;;;;;;13.87;63.76;101412.28;1017391;29;926;-63
2022/02/13 00:35:50;;;;;;;;;;;;;;;13.85;66.97;101406.16;1017371;29;778;-63
2022/02/13 00:36:41;;;;;;;;;;;;;;;13.84;65.21;101401.78;1016728;29;775;-63
2022/02/13 00:37:31;;;;;;;;;;;;;;;13.84;67.09;101401.78;1017307;29;699;-64
2022/02/13 00:38:22;;;;;;;;;;;;;;;13.84;66.49;101396.41;1017296;29;788;-63
2022/02/13 00:39:12;;;;;;;;;;;;;;;13.86;66.52;101398.03;1018361;29;931;-63
2022/02/13 00:40:03;;;;;;;;;;;;;;;13.84;65.77;101381.19;1017320;29;1043;-63
2022/02/13 00:40:53;;;;;;;;;;;;;;;13.87;66.11;101382.81;1020328;29;1996;-64
2022/02/13 00:41:43;;;;;;;;;;;;;;;13.85;67.47;101379.38;1017096;29;789;-63
2022/02/13 00:42:34;;;;;;;;;;;;;;;13.86;64.09;101379.28;1017657;29;719;-63
2022/02/13 00:43:24;;;;;;;;;;;;;;;13.84;64.61;101373.16;1021213;29;714;-63
2022/02/13 00:44:15;;;;;;;;;;;;;;;13.85;65.78;101371.34;1021821;29;686;-62
2022/02/13 00:45:05;;;;;;;;;;;;;;;13.84;65.17;101370.47;1020802;29;805;-62
2022/02/13 00:45:56;;;;;;;;;;;;;;;13.84;64.98;101369.63;1021245;29;767;-62
2022/02/13 00:46:46;;;;;;;;;;;;;;;13.84;65.97;101366.94;1021640;29;894;-61
2022/02/13 00:47:36;;;;;;;;;;;;;;;13.84;65.66;101370.47;1021655;29;1038;-61
2022/02/13 00:48:27;;;;;;;;;;;;;;;13.85;63.71;101371.34;1021927;29;809;-61
2022/02/13 00:49:17;;;;;;;;;;;;;;;13.83;67.67;101373.25;1021763;29;800;-61
2022/02/13 00:50:08;;;;;;;;;;;;;;;13.81;65.49;101373.38;1021871;29;980;-61
2022/02/13 00:50:58;;;;;;;;;;;;;;;13.81;66.27;101373.38;1021739;29;689;-61
2022/02/13 00:51:49;;;;;;;;;;;;;;;13.81;66.09;101369.81;1021705;29;765;-62
2022/02/13 00:52:39;;;;;;;;;;;;;;;13.82;65.47;101369.72;1021797;29;855;-61
2022/02/13 00:53:30;;;;;;;;;;;;;;;13.81;65.50;101364.47;1021608;29;1333;-62
2022/02/13 00:54:20;;;;;;;;;;;;;;;13.79;67.66;101367.25;1021817;29;751;-62
2022/02/13 00:55:11;;;;;;;;;;;;;;;13.79;65.49;101367.25;1020664;29;741;-62
2022/02/13 00:56:01;;;;;;;;;;;;;;;13.80;66.07;101360.06;1021835;29;717;-61
2022/02/13 00:56:51;;;;;;;;;;;;;;;13.81;65.31;101356.44;1021793;29;696;-62
2022/02/13 00:57:42;;;;;;;;;;;;;;;13.80;64.32;101354.72;1021806;29;728;-61
2022/02/13 00:58:33;;;;;;;;;;;;;;;13.80;66.78;101349.34;1021743;29;783;-61
2022/02/13 00:59:24;;;;;;;;;;;;;;;13.79;65.33;101351.19;1017881;29;753;-61
2022/02/13 01:00:14;;;;;;;;;;;;;;;13.77;65.84;101347.78;1017830;29;706;-61
2022/02/13 01:01:05;;;;;;;;;;;;;;;13.78;67.34;101349.50;1016813;29;693;-61
2022/02/13 01:01:55;;;;;;;;;;;;;;;13.78;65.65;101352.19;1016785;29;833;-61
2022/02/13 01:02:45;;;;;;;;;;;;;;;13.75;67.15;101349.72;1016723;29;721;-61
2022/02/13 01:03:36;;;;;;;;;;;;;;;13.77;65.73;101344.25;1016781;29;699;-62
2022/02/13 01:04:26;;;;;;;;;;;;;;;13.76;66.68;101358.59;1016706;29;666;-62
2022/02/13 01:05:17;;;;;;;;;;;;;;;13.76;66.54;101355.94;1016742;29;782;-62
2022/02/13 01:06:08;;;;;;;;;;;;;;;13.75;67.46;101349.72;1017698;29;778;-61
2022/02/13 01:06:58;;;;;;;;;;;;;;;13.74;66.27;101353.34;1016496;29;686;-62
2022/02/13 01:07:49;;;;;;;;;;;;;;;13.74;64.59;101360.53;1016810;29;792;-63
2022/02/13 01:08:39;;;;;;;;;;;;;;;13.74;66.63;101356.03;1016609;29;2018;-62
2022/02/13 01:09:30;;;;;;;;;;;;;;;13.74;67.17;101353.34;1017882;29;748;-63
2022/02/13 01:10:20;;;;;;;;;;;;;;;13.73;65.92;101348.09;1018741;28;781;-62
2022/02/13 01:11:10;;;;;;;;;;;;;;;13.75;66.70;101341.66;1018962;29;716;-63
2022/02/13 01:12:01;;;;;;;;;;;;;;;13.74;66.14;101339.09;1017333;29;766;-63
2022/02/13 01:12:51;;;;;;;;;;;;;;;13.72;66.63;101339.22;1017230;29;762;-63
2022/02/13 01:13:44;;;;;;;;;;;;;;;13.73;67.31;101340.91;1017288;29;755;-62
2022/02/13 01:14:35;;;;;;;;;;;;;;;13.71;66.07;101336.63;1017367;29;860;-61
2022/02/13 01:15:25;;;;;;;;;;;;;;;13.73;65.57;101335.56;1017573;29;764;-61
2022/02/13 01:16:16;;;;;;;;;;;;;;;13.73;64.53;101330.22;1017313;29;770;-62
2022/02/13 01:17:06;;;;;;;;;;;;;;;13.72;66.22;101330.31;1017070;29;769;-62
2022/02/13 01:17:56;;;;;;;;;;;;;;;13.72;65.85;101324.94;1017202;29;706;-64
2022/02/13 01:18:47;;;;;;;;;;;;;;;13.72;66.15;101322.28;1018204;29;1875;-64
2022/02/13 01:19:37;;;;;;;;;;;;;;;13.72;66.19;101330.31;1021734;29;714;-64
2022/02/13 01:20:28;;;;;;;;;;;;;;;13.71;67.10;101331.28;1021135;29;773;-63
2022/02/13 01:21:18;;;;;;;;;;;;;;;13.72;65.52;101322.28;1021093;29;695;-64
2022/02/13 01:22:10;;;;;;;;;;;;;;;13.73;65.09;101324.00;1021694;29;912;-63
2022/02/13 01:23:00;;;;;;;;;;;;;;;13.73;65.52;101318.63;1016920;29;828;-64
2022/02/13 01:23:51;;;;;;;;;;;;;;;13.71;66.30;101312.53;1017466;29;1117;-62
2022/02/13 01:24:41;;;;;;;;;;;;;;;13.70;66.65;101308.13;1017838;29;858;-63
2022/02/13 01:25:32;;;;;;;;;;;;;;;13.68;66.01;101315.41;1017476;29;805;-65
2022/02/13 01:26:23;;;;;;;;;;;;;;;13.67;66.96;101311.88;1020989;29;1887;-64
2022/02/13 01:27:14;;;;;;;;;;;;;;;13.68;65.86;101307.38;1021122;29;706;-65
2022/02/13 01:28:04;;;;;;;;;;;;;;;13.68;66.92;101304.69;1016744;29;792;-64
2022/02/13 01:28:55;;;;;;;;;;;;;;;13.65;66.88;101300.41;1017132;29;1699;-63
2022/02/13 01:29:45;;;;;;;;;;;;;;;13.64;65.85;101293.34;1020939;29;627;-64
2022/02/13 01:30:36;;;;;;;;;;;;;;;13.65;67.34;101299.56;1021728;29;722;-63
2022/02/13 01:31:27;;;;;;;;;;;;;;;13.66;65.60;101296.78;1021478;29;894;-62
2022/02/13 01:32:18;;;;;;;;;;;;;;;13.65;67.01;101295.06;1021007;29;777;-62
2022/02/13 01:33:08;;;;;;;;;;;;;;;13.65;66.00;101292.38;1021534;29;905;-62
2022/02/13 01:33:58;;;;;;;;;;;;;;;13.64;66.88;101293.34;1021071;29;730;-62
2022/02/13 01:34:49;;;;;;;;;;;;;;;13.64;67.13;101295.16;1021597;29;1093;-62
2022/02/13 01:35:39;;;;;;;;;;;;;;;13.64;67.68;101292.47;1021574;29;772;-62
2022/02/13 01:36:30;;;;;;;;;;;;;;;13.60;67.08;101289.19;1021702;29;757;-63
2022/02/13 01:37:20;;;;;;;;;;;;;;;13.61;67.17;101292.72;1016744;29;850;-63
2022/02/13 01:38:10;;;;;;;;;;;;;;;13.61;67.57;101292.72;1017489;29;697;-63
2022/02/13 01:39:01;;;;;;;;;;;;;;;13.63;65.57;101285.41;1020894;29;1867;-63
2022/02/13 01:39:51;;;;;;;;;;;;;;;13.61;66.52;101292.72;1021701;29;952;-64
2022/02/13 01:40:42;;;;;;;;;;;;;;;13.61;66.99;101287.38;1021514;29;1911;-63
2022/02/13 01:41:32;;;;;;;;;;;;;;;13.59;67.43;101292.84;1020350;29;865;-63
2022/02/13 01:42:23;;;;;;;;;;;;;;;13.59;66.88;101289.31;1020430;29;720;-63
2022/02/13 01:43:13;;;;;;;;;;;;;;;13.58;65.23;101271.50;1020683;29;777;-63
2022/02/13 01:44:03;;;;;;;;;;;;;;;13.60;67.58;101274.94;1020492;29;763;-63
2022/02/13 01:44:55;;;;;;;;;;;;;;;13.58;67.74;101272.38;1020578;29;773;-63
2022/02/13 01:45:46;;;;;;;;;;;;;;;13.58;67.78;101260.81;1021655;29;769;-63
2022/02/13 01:46:36;;;;;;;;;;;;;;;13.56;66.91;101263.59;1020185;29;1887;-63
2022/02/13 01:47:29;;;;;;;;;;;;;;;13.57;66.37;101270.66;1020422;29;790;-63
2022/02/13 01:48:19;;;;;;;;;;;;;;;13.57;66.93;101272.47;1021194;29;642;-63
2022/02/13 01:49:09;;;;;;;;;;;;;;;13.58;67.18;101272.38;1020212;29;1645;-63
2022/02/13 01:50:00;;;;;;;;;;;;;;;13.60;65.44;101275.81;1021951;29;851;-63
2022/02/13 01:50:50;;;;;;;;;;;;;;;13.57;67.84;101275.16;1021602;29;760;-63
2022/02/13 01:51:41;;;;;;;;;;;;;;;13.57;66.78;101277.84;1021010;29;761;-63
2022/02/13 01:52:31;;;;;;;;;;;;;;;13.53;67.56;101278.03;1021425;29;690;-63
2022/02/13 01:53:22;;;;;;;;;;;;;;;13.54;67.61;101276.22;1021359;29;1128;-63
2022/02/13 01:54:12;;;;;;;;;;;;;;;13.54;67.59;101265.50;1020908;29;1007;-62
2022/02/13 01:55:03;;;;;;;;;;;;;;;13.55;67.24;101273.44;1021510;29;652;-63
2022/02/13 01:55:53;;;;;;;;;;;;;;;13.55;67.14;101268.09;1020822;29;736;-64
2022/02/13 01:56:44;;;;;;;;;;;;;;;13.57;67.23;101273.34;1021593;29;692;-62
2022/02/13 01:57:34;;;;;;;;;;;;;;;13.56;67.14;101274.28;1021568;29;709;-63
2022/02/13 01:58:24;;;;;;;;;;;;;;;13.55;65.07;101278.78;1016705;29;789;-62
2022/02/13 01:59:15;;;;;;;;;;;;;;;13.57;65.82;101272.47;1017049;29;2115;-63
2022/02/13 02:00:05;;;;;;;;;;;;;;;13.55;66.90;101265.41;1020853;29;741;-63
2022/02/13 02:00:56;;;;;;;;;;;;;;;13.57;65.22;101276.00;1021002;29;705;-63
2022/02/13 02:01:46;;;;;;;;;;;;;;;13.55;67.04;101261.88;1021513;29;755;-61
2022/02/13 02:02:37;;;;;;;;;;;;;;;13.55;67.32;101268.09;1021526;29;844;-61
2022/02/13 02:03:27;;;;;;;;;;;;;;;13.54;66.26;101262.84;1021588;29;799;-62
2022/02/13 02:04:18;;;;;;;;;;;;;;;13.53;66.90;101264.66;1021424;29;790;-62
2022/02/13 02:05:08;;;;;;;;;;;;;;;13.52;66.11;101260.25;1016902;29;734;-61
2022/02/13 02:05:58;;;;;;;;;;;;;;;13.53;66.92;101253.94;1016621;29;2188;-62
2022/02/13 02:06:49;;;;;;;;;;;;;;;13.53;66.89;101248.59;1020821;29;767;-62
2022/02/13 02:07:39;;;;;;;;;;;;;;;13.54;66.76;101260.16;1021617;29;690;-62
2022/02/13 02:08:30;;;;;;;;;;;;;;;13.52;67.14;101256.72;1021460;29;782;-62
2022/02/13 02:09:20;;;;;;;;;;;;;;;13.52;67.35;101260.25;1018101;29;684;-63
2022/02/13 02:10:10;;;;;;;;;;;;;;;13.51;67.22;101249.66;1018864;29;770;-66
2022/02/13 02:11:01;;;;;;;;;;;;;;;13.49;66.57;101247.09;1018624;28;794;-66
2022/02/13 02:11:51;;;;;;;;;;;;;;;13.49;67.45;101249.75;1018850;28;690;-66
2022/02/13 02:12:42;;;;;;;;;;;;;;;13.48;66.92;101244.53;1018608;28;697;-66
2022/02/13 02:13:32;;;;;;;;;;;;;;;13.47;67.22;101248.16;1020248;29;1531;-66
2022/02/13 02:14:23;;;;;;;;;;;;;;;13.48;67.06;101245.38;1020331;29;715;-65
2022/02/13 02:15:13;;;;;;;;;;;;;;;13.49;66.50;101243.56;1020551;29;689;-65
2022/02/13 02:16:03;;;;;;;;;;;;;;;13.50;67.40;101248.81;1020301;29;780;-64
2022/02/13 02:16:54;;;;;;;;;;;;;;;13.52;65.64;101246.88;1020395;29;783;-65
2022/02/13 02:17:44;;;;;;;;;;;;;;;13.49;66.98;101252.44;1020161;29;611;-63
2022/02/13 02:18:35;;;;;;;;;;;;;;;13.49;66.97;101255.13;1020362;29;777;-64
2022/02/13 02:19:25;;;;;;;;;;;;;;;13.48;67.50;101245.38;1016643;29;718;-63
2022/02/13 02:20:15;;;;;;;;;;;;;;;13.49;67.08;101251.59;1016908;29;917;-64
2022/02/13 02:21:08;;;;;;;;;;;;;;;13.46;66.90;101249.97;1016932;29;774;-63
2022/02/13 02:21:59;;;;;;;;;;;;;;;13.47;66.89;101240.97;1016869;29;675;-64
2022/02/13 02:22:49;;;;;;;;;;;;;;;13.47;67.49;101245.47;1017080;29;731;-65
2022/02/13 02:23:40;;;;;;;;;;;;;;;13.47;67.42;101243.66;1016986;29;756;-64
2022/02/13 02:24:30;;;;;;;;;;;;;;;13.46;66.54;101241.94;1016995;29;665;-65
2022/02/13 02:25:21;;;;;;;;;;;;;;;13.45;67.39;101242.91;1017002;29;938;-65
2022/02/13 02:26:14;;;;;;;;;;;;;;;13.45;67.06;101234.88;1012261;29;738;-62
2022/02/13 02:27:04;;;;;;;;;;;;;;;13.46;66.68;101235.72;1013367;29;730;-62
2022/02/13 02:27:55;;;;;;;;;;;;;;;13.45;66.09;101229.53;1017087;29;694;-62
2022/02/13 02:28:45;;;;;;;;;;;;;;;13.44;66.53;101235.84;1017052;29;759;-62
2022/02/13 02:29:35;;;;;;;;;;;;;;;13.47;65.86;101226.75;1018036;29;866;-63
2022/02/13 02:30:26;;;;;;;;;;;;;;;13.46;66.83;101228.56;1017145;29;783;-62
2022/02/13 02:31:16;;;;;;;;;;;;;;;13.46;66.88;101233.91;1016955;29;767;-63
2022/02/13 02:32:10;;;;;;;;;;;;;;;13.45;67.17;101226.00;1017017;29;729;-62
2022/02/13 02:33:01;;;;;;;;;;;;;;;13.43;67.15;101222.59;1017062;29;704;-62
2022/02/13 02:33:51;;;;;;;;;;;;;;;13.42;66.71;101224.41;1016883;29;826;-63
2022/02/13 02:34:42;;;;;;;;;;;;;;;13.43;66.88;101231.47;1017052;29;763;-63
2022/02/13 02:35:32;;;;;;;;;;;;;;;13.42;67.86;101218.19;1017031;29;744;-63
2022/02/13 02:36:23;;;;;;;;;;;;;;;13.43;66.34;101227.94;1016938;29;704;-63
2022/02/13 02:37:13;;;;;;;;;;;;;;;13.43;65.42;101225.25;1017076;29;681;-63
2022/02/13 02:38:03;;;;;;;;;;;;;;;13.43;67.34;101217.25;1016990;29;926;-63
2022/02/13 02:38:54;;;;;;;;;;;;;;;13.43;67.16;101218.09;1014619;29;1859;-63
2022/02/13 02:39:44;;;;;;;;;;;;;;;13.42;65.52;101211.03;1012716;29;864;-62
2022/02/13 02:40:35;;;;;;;;;;;;;;;13.43;67.14;101202.03;1017213;29;960;-63
2022/02/13 02:41:26;;;;;;;;;;;;;;;13.43;66.73;101209.22;1017604;29;739;-62
2022/02/13 02:42:16;;;;;;;;;;;;;;;13.43;66.99;101203.84;1017669;29;783;-63
2022/02/13 02:43:06;;;;;;;;;;;;;;;13.42;65.13;101203.00;1017584;29;701;-63
2022/02/13 02:43:57;;;;;;;;;;;;;;;13.44;66.85;101205.53;1017522;29;938;-64
2022/02/13 02:44:47;;;;;;;;;;;;;;;13.42;67.01;101202.13;1017551;29;776;-63
2022/02/13 02:45:38;;;;;;;;;;;;;;;13.40;67.63;101202.25;1017542;29;786;-64
2022/02/13 02:46:29;;;;;;;;;;;;;;;13.41;66.28;101201.28;1017319;29;1895;-63
2022/02/13 02:47:19;;;;;;;;;;;;;;;13.43;65.67;101198.50;1017540;29;767;-63
2022/02/13 02:48:10;;;;;;;;;;;;;;;13.43;66.25;101196.69;1017472;29;894;-63
2022/02/13 02:49:00;;;;;;;;;;;;;;;13.41;66.64;101189.72;1019439;29;2055;-62
2022/02/13 02:49:50;;;;;;;;;;;;;;;13.39;65.68;101191.63;1021533;29;814;-62
2022/02/13 02:50:41;;;;;;;;;;;;;;;13.39;66.73;101191.63;1021224;29;1924;-62
2022/02/13 02:51:31;;;;;;;;;;;;;;;13.39;66.31;101192.50;1020381;29;752;-62
2022/02/13 02:52:22;;;;;;;;;;;;;;;13.40;65.57;101183.50;1020298;29;745;-62
2022/02/13 02:53:12;;;;;;;;;;;;;;;13.39;66.30;101184.47;1020415;29;709;-62
2022/02/13 02:54:02;;;;;;;;;;;;;;;13.39;64.75;101189.81;1020143;29;1143;-63
2022/02/13 02:54:53;;;;;;;;;;;;;;;13.37;67.08;101173.00;1020425;29;729;-62
2022/02/13 02:55:43;;;;;;;;;;;;;;;13.37;67.43;101169.47;1021951;29;657;-62
2022/02/13 02:56:34;;;;;;;;;;;;;;;13.37;66.50;101172.16;1020255;29;826;-62
2022/02/13 02:57:26;;;;;;;;;;;;;;;13.34;67.31;101167.88;1020497;29;691;-62
2022/02/13 02:58:16;;;;;;;;;;;;;;;13.34;66.95;101173.22;1021473;29;709;-63
2022/02/13 02:59:07;;;;;;;;;;;;;;;13.33;67.52;101167.97;1020134;29;2041;-62
2022/02/13 02:59:58;;;;;;;;;;;;;;;13.35;67.34;101163.38;1021783;29;698;-63
2022/02/13 03:00:50;;;;;;;;;;;;;;;13.36;67.26;101165.09;1021520;29;918;-62
2022/02/13 03:01:40;;;;;;;;;;;;;;;13.35;66.52;101164.22;1021559;29;668;-63
2022/02/13 03:02:31;;;;;;;;;;;;;;;13.36;65.75;101157.91;1022209;29;716;-62
2022/02/13 03:03:22;;;;;;;;;;;;;;;13.36;67.15;101160.59;1022175;29;699;-63
2022/02/13 03:04:12;;;;;;;;;;;;;;;13.37;66.45;101158.78;1021763;29;745;-63
2022/02/13 03:05:03;;;;;;;;;;;;;;;13.36;66.06;101157.91;1022124;29;838;-62
2022/02/13 03:05:53;;;;;;;;;;;;;;;13.34;67.02;101151.81;1022282;29;785;-63
2022/02/13 03:06:43;;;;;;;;;;;;;;;13.36;66.07;101151.69;1022075;29;1922;-63
2022/02/13 03:07:34;;;;;;;;;;;;;;;13.35;66.39;101160.69;1022004;29;1814;-63
2022/02/13 03:08:25;;;;;;;;;;;;;;;13.34;66.81;101153.63;1021670;29;1055;-63
2022/02/13 03:09:15;;;;;;;;;;;;;;;13.34;66.05;101150.94;1022171;29;825;-63
2022/02/13 03:10:05;;;;;;;;;;;;;;;13.34;66.50;101150.94;1022819;29;721;-61
2022/02/13 03:10:56;;;;;;;;;;;;;;;13.34;67.19;101142.91;1021794;29;819;-63
2022/02/13 03:11:46;;;;;;;;;;;;;;;13.32;64.75;101144.84;1022150;29;780;-62
2022/02/13 03:12:37;;;;;;;;;;;;;;;13.33;66.41;101143.88;1022205;29;779;-62
2022/02/13 03:13:27;;;;;;;;;;;;;;;13.33;66.86;101151.91;1022040;29;852;-62
2022/02/13 03:14:17;;;;;;;;;;;;;;;13.32;66.46;101135.00;1022202;29;710;-63
2022/02/13 03:15:08;;;;;;;;;;;;;;;13.32;66.31;101140.34;1022172;29;824;-63
2022/02/13 03:15:58;;;;;;;;;;;;;;;13.34;66.05;101142.91;1021682;29;727;-64
2022/02/13 03:16:49;;;;;;;;;;;;;;;13.32;66.63;101143.03;1022188;29;709;-63
2022/02/13 03:17:40;;;;;;;;;;;;;;;13.33;65.70;101139.38;1021309;29;1859;-64
2022/02/13 03:18:30;;;;;;;;;;;;;;;13.31;66.86;101140.47;1022268;29;770;-64
2022/02/13 03:19:20;;;;;;;;;;;;;;;13.30;66.68;101139.59;1017265;29;1936;-64
2022/02/13 03:20:11;;;;;;;;;;;;;;;13.31;66.38;101140.47;1018020;29;815;-63
2022/02/13 03:21:01;;;;;;;;;;;;;;;13.30;66.92;101136.94;1021452;29;850;-64
2022/02/13 03:21:52;;;;;;;;;;;;;;;13.29;65.33;101137.88;1021325;29;657;-63
2022/02/13 03:22:42;;;;;;;;;;;;;;;13.27;67.62;101137.13;1022042;29;733;-63
2022/02/13 03:23:33;;;;;;;;;;;;;;;13.28;67.38;101132.66;1021974;29;827;-61
2022/02/13 03:24:23;;;;;;;;;;;;;;;13.28;66.65;101138.00;1022098;29;715;-63
2022/02/13 03:25:14;;;;;;;;;;;;;;;13.28;66.26;101133.50;1022098;29;758;-63
2022/02/13 03:26:04;;;;;;;;;;;;;;;13.27;66.37;101138.97;1022009;29;804;-63
2022/02/13 03:26:54;;;;;;;;;;;;;;;13.27;64.58;101133.59;1022080;29;740;-63
2022/02/13 03:27:45;;;;;;;;;;;;;;;13.27;67.17;101130.94;1021701;29;1808;-64
2022/02/13 03:28:35;;;;;;;;;;;;;;;13.27;65.57;101126.44;1021220;29;751;-64
2022/02/13 03:29:26;;;;;;;;;;;;;;;13.27;66.36;101123.75;1020923;29;694;-63
2022/02/13 03:30:16;;;;;;;;;;;;;;;13.28;67.01;101129.97;1021090;29;769;-64
2022/02/13 03:31:07;;;;;;;;;;;;;;;13.28;65.81;101116.59;1020864;29;690;-63
2022/02/13 03:31:57;;;;;;;;;;;;;;;13.27;66.40;101118.41;1022096;29;925;-64
2022/02/13 03:32:48;;;;;;;;;;;;;;;13.26;66.56;101124.72;1021112;29;671;-63
2022/02/13 03:33:38;;;;;;;;;;;;;;;13.26;66.27;101122.03;1021160;29;729;-63
2022/02/13 03:34:29;;;;;;;;;;;;;;;13.26;66.33;101116.69;1021003;29;715;-63
2022/02/13 03:35:19;;;;;;;;;;;;;;;13.25;66.77;101131.06;1021082;29;699;-65
2022/02/13 03:36:09;;;;;;;;;;;;;;;13.27;64.90;101129.13;1020853;29;730;-64
2022/02/13 03:37:00;;;;;;;;;;;;;;;13.26;67.12;101116.69;1020910;29;687;-64
2022/02/13 03:37:50;;;;;;;;;;;;;;;13.27;65.95;101117.56;1017223;29;775;-63
2022/02/13 03:38:41;;;;;;;;;;;;;;;13.26;67.20;101123.88;1017489;29;785;-63
2022/02/13 03:39:31;;;;;;;;;;;;;;;13.24;66.02;101115.97;1017712;29;712;-64
2022/02/13 03:40:21;;;;;;;;;;;;;;;13.24;67.04;101107.94;1017434;29;851;-64
2022/02/13 03:41:12;;;;;;;;;;;;;;;13.25;65.46;101114.16;1017662;29;739;-64
2022/02/13 03:42:02;;;;;;;;;;;;;;;13.23;66.90;101116.94;1017681;29;688;-64
2022/02/13 03:42:53;;;;;;;;;;;;;;;13.23;66.30;101114.25;1017597;29;989;-63
2022/02/13 03:43:43;;;;;;;;;;;;;;;13.23;66.80;101108.06;1018165;29;758;-63
2022/02/13 03:44:36;;;;;;;;;;;;;;;13.24;65.90;101107.09;1017447;29;771;-63
2022/02/13 03:45:26;;;;;;;;;;;;;;;13.22;65.72;101104.53;1017673;29;1818;-64
2022/02/13 03:46:16;;;;;;;;;;;;;;;13.23;66.62;101116.09;1018080;29;715;-64
2022/02/13 03:47:07;;;;;;;;;;;;;;;13.22;66.55;101109.88;1019186;28;693;-63
2022/02/13 03:47:57;;;;;;;;;;;;;;;13.20;66.04;101111.81;1019176;28;780;-65
2022/02/13 03:48:48;;;;;;;;;;;;;;;13.20;66.58;101119.84;1019058;28;719;-63
2022/02/13 03:49:38;;;;;;;;;;;;;;;13.22;65.64;101122.41;1014869;29;730;-64
2022/02/13 03:50:29;;;;;;;;;;;;;;;13.22;66.21;101115.22;1015082;29;761;-64
2022/02/13 03:51:19;;;;;;;;;;;;;;;13.19;66.44;101118.13;1018634;29;717;-64
2022/02/13 03:52:09;;;;;;;;;;;;;;;13.20;66.35;101117.16;1019256;28;688;-63
2022/02/13 03:53:00;;;;;;;;;;;;;;;13.19;66.43;101116.31;1019070;28;912;-64
2022/02/13 03:53:50;;;;;;;;;;;;;;;13.19;66.49;101126.16;1018999;28;1019;-64
2022/02/13 03:54:41;;;;;;;;;;;;;;;13.19;67.28;101120.78;1019241;29;763;-64
2022/02/13 03:55:31;;;;;;;;;;;;;;;13.18;66.09;101119.09;1019629;28;1976;-64
2022/02/13 03:56:21;;;;;;;;;;;;;;;13.21;66.57;101118.88;1021454;29;711;-63
2022/02/13 03:57:12;;;;;;;;;;;;;;;13.21;66.12;101124.22;1021934;29;747;-63
2022/02/13 03:58:02;;;;;;;;;;;;;;;13.21;66.75;101118.88;1018546;29;761;-63
2022/02/13 03:58:53;;;;;;;;;;;;;;;13.18;67.05;101124.44;1019313;29;655;-62
2022/02/13 03:59:43;;;;;;;;;;;;;;;13.18;66.75;101119.09;1014941;29;733;-63
2022/02/13 04:00:33;;;;;;;;;;;;;;;13.17;67.25;101120.91;1014364;29;904;-63
2022/02/13 04:01:24;;;;;;;;;;;;;;;13.18;66.39;101113.72;1013775;29;921;-63
2022/02/13 04:02:14;;;;;;;;;;;;;;;13.17;65.97;101115.56;1015723;29;686;-64
2022/02/13 04:03:05;;;;;;;;;;;;;;;13.15;66.50;101120.16;1019201;29;715;-63
2022/02/13 04:03:55;;;;;;;;;;;;;;;13.15;66.69;101117.47;1018506;29;654;-64
2022/02/13 04:04:46;;;;;;;;;;;;;;;13.16;66.31;101110.31;1019110;28;692;-64
2022/02/13 04:05:36;;;;;;;;;;;;;;;13.15;66.21;101114.81;1020098;28;1874;-63
2022/02/13 04:06:26;;;;;;;;;;;;;;;13.15;66.90;101105.91;1017688;29;1915;-63
2022/02/13 04:07:17;;;;;;;;;;;;;;;13.15;66.19;101100.56;1017792;29;773;-64
2022/02/13 04:08:07;;;;;;;;;;;;;;;13.15;66.10;101100.56;1021249;29;736;-63
2022/02/13 04:08:58;;;;;;;;;;;;;;;13.15;66.29;101105.91;1021833;29;1013;-63
2022/02/13 04:09:48;;;;;;;;;;;;;;;13.15;66.64;101108.59;1021793;29;889;-63
2022/02/13 04:10:38;;;;;;;;;;;;;;;13.15;66.21;101103.25;1021421;29;698;-63
2022/02/13 04:11:29;;;;;;;;;;;;;;;13.15;65.42;101092.53;1021335;29;737;-63
2022/02/13 04:12:19;;;;;;;;;;;;;;;13.16;65.98;101102.28;1021477;29;701;-63
2022/02/13 04:13:10;;;;;;;;;;;;;;;13.15;66.65;101093.38;1021423;29;724;-63
2022/02/13 04:14:00;;;;;;;;;;;;;;;13.17;65.17;101098.63;1021899;29;891;-61
2022/02/13 04:14:51;;;;;;;;;;;;;;;13.16;66.61;101099.59;1021964;29;703;-61
2022/02/13 04:15:42;;;;;;;;;;;;;;;13.15;66.71;101097.88;1021215;29;1763;-63
2022/02/13 04:16:32;;;;;;;;;;;;;;;13.14;65.46;101101.50;1022029;29;752;-62
2022/02/13 04:17:23;;;;;;;;;;;;;;;13.13;65.85;101105.13;1021610;29;823;-62
2022/02/13 04:18:13;;;;;;;;;;;;;;;13.13;66.47;101097.09;1021930;29;744;-62
2022/02/13 04:19:04;;;;;;;;;;;;;;;13.12;66.34;101100.75;1022068;29;770;-62
2022/02/13 04:19:54;;;;;;;;;;;;;;;13.12;66.85;101100.75;1018639;29;820;-62
2022/02/13 04:20:45;;;;;;;;;;;;;;;13.12;65.68;101098.91;1017593;29;697;-62
2022/02/13 04:21:35;;;;;;;;;;;;;;;13.14;66.12;101101.50;1021886;29;861;-62
2022/02/13 04:22:25;;;;;;;;;;;;;;;13.15;65.96;101096.06;1020696;29;808;-62
2022/02/13 04:23:16;;;;;;;;;;;;;;;13.14;65.83;101090.78;1020899;29;768;-63
2022/02/13 04:24:06;;;;;;;;;;;;;;;13.11;66.74;101096.34;1020725;29;953;-63
2022/02/13 04:24:57;;;;;;;;;;;;;;;13.13;64.95;101097.97;1021879;29;670;-63
2022/02/13 04:25:47;;;;;;;;;;;;;;;13.13;65.50;101094.44;1018601;29;748;-62